sensor_id;sensor_type;location;lat;lon;timestamp;P1;durP1;ratioP1;P2;durP2;ratioP2
40729;SDS011;26418;50.070;8.436;2022-09-09T00:00:37;2.08;;;1.10;;
40729;SDS011;26418;50.070;8.436;2022-09-09T00:03:08;2.90;;;1.17;;
40729;SDS011;26418;50.070;8.436;2022-09-09T00:05:55;3.47;;;1.00;;
40729;SDS011;26418;50.070;8.436;2022-09-09T00:11:22;2.77;;;1.30;;
40729;SDS011;26418;50.070;8.436;2022-09-09T00:13:53;3.88;;;1.02;;
40729;SDS011;26418;50.070;8.436;2022-09-09T00:16:22;2.50;;;1.02;;
40729;SDS011;26418;50.070;8.436;2022-09-09T00:18:55;3.70;;;1.00;;
40729;SDS011;26418;50.070;8.436;2022-09-09T00:21:33;4.68;;;1.23;;
40729;SDS011;26418;50.070;8.436;2022-09-09T00:30:12;4.00;;;1.13;;
40729;SDS011;26418;50.070;8.436;2022-09-09T00:32:53;2.42;;;0.93;;
40729;SDS011;26418;50.070;8.436;2022-09-09T00:35:42;4.60;;;1.13;;
40729;SDS011;26418;50.070;8.436;2022-09-09T00:43:30;2.92;;;1.27;;
40729;SDS011;26418;50.070;8.436;2022-09-09T00:46:10;4.43;;;1.60;;
40729;SDS011;26418;50.070;8.436;2022-09-09T00:49:05;3.08;;;1.00;;
40729;SDS011;26418;50.070;8.436;2022-09-09T00:54:26;3.08;;;1.30;;
40729;SDS011;26418;50.070;8.436;2022-09-09T01:01:53;4.65;;;1.38;;
40729;SDS011;26418;50.070;8.436;2022-09-09T01:04:21;2.78;;;1.10;;
40729;SDS011;26418;50.070;8.436;2022-09-09T01:07:07;1.80;;;0.98;;
40729;SDS011;26418;50.070;8.436;2022-09-09T01:09:45;1.60;;;1.43;;
40729;SDS011;26418;50.070;8.436;2022-09-09T01:12:24;5.07;;;1.58;;
40729;SDS011;26418;50.070;8.436;2022-09-09T01:15:04;3.40;;;1.50;;
40729;SDS011;26418;50.070;8.436;2022-09-09T01:17:44;2.60;;;1.30;;
40729;SDS011;26418;50.070;8.436;2022-09-09T01:20:17;2.13;;;1.20;;
40729;SDS011;26418;50.070;8.436;2022-09-09T01:25:29;4.13;;;1.42;;
40729;SDS011;26418;50.070;8.436;2022-09-09T01:28:25;4.55;;;1.13;;
40729;SDS011;26418;50.070;8.436;2022-09-09T01:30:53;3.20;;;1.10;;
40729;SDS011;26418;50.070;8.436;2022-09-09T01:33:21;1.40;;;1.10;;
40729;SDS011;26418;50.070;8.436;2022-09-09T01:35:48;6.20;;;1.40;;
40729;SDS011;26418;50.070;8.436;2022-09-09T01:38:21;3.72;;;1.38;;
40729;SDS011;26418;50.070;8.436;2022-09-09T01:40:48;3.50;;;0.90;;
40729;SDS011;26418;50.070;8.436;2022-09-09T01:43:17;3.55;;;1.30;;
40729;SDS011;26418;50.070;8.436;2022-09-09T01:45:43;1.70;;;0.93;;
40729;SDS011;26418;50.070;8.436;2022-09-09T01:48:11;3.50;;;1.27;;
40729;SDS011;26418;50.070;8.436;2022-09-09T01:50:36;1.80;;;1.00;;
40729;SDS011;26418;50.070;8.436;2022-09-09T01:53:02;9.32;;;1.83;;
40729;SDS011;26418;50.070;8.436;2022-09-09T01:55:29;2.45;;;1.45;;
40729;SDS011;26418;50.070;8.436;2022-09-09T01:58:11;2.25;;;1.45;;
40729;SDS011;26418;50.070;8.436;2022-09-09T02:00:48;4.78;;;1.80;;
40729;SDS011;26418;50.070;8.436;2022-09-09T02:08:53;2.08;;;1.15;;
40729;SDS011;26418;50.070;8.436;2022-09-09T02:11:25;4.10;;;1.10;;
40729;SDS011;26418;50.070;8.436;2022-09-09T02:13:53;1.45;;;1.10;;
40729;SDS011;26418;50.070;8.436;2022-09-09T02:16:23;5.18;;;1.35;;
40729;SDS011;26418;50.070;8.436;2022-09-09T02:19:23;5.53;;;1.30;;
40729;SDS011;26418;50.070;8.436;2022-09-09T02:21:56;2.97;;;1.48;;
40729;SDS011;26418;50.070;8.436;2022-09-09T02:24:24;3.53;;;1.42;;
40729;SDS011;26418;50.070;8.436;2022-09-09T02:26:52;3.28;;;1.50;;
40729;SDS011;26418;50.070;8.436;2022-09-09T02:29:39;3.63;;;1.35;;
40729;SDS011;26418;50.070;8.436;2022-09-09T02:32:07;4.72;;;1.30;;
40729;SDS011;26418;50.070;8.436;2022-09-09T02:34:39;4.30;;;1.50;;
40729;SDS011;26418;50.070;8.436;2022-09-09T02:37:12;3.25;;;1.50;;
40729;SDS011;26418;50.070;8.436;2022-09-09T02:39:42;3.90;;;1.55;;
40729;SDS011;26418;50.070;8.436;2022-09-09T02:42:08;3.33;;;1.38;;
40729;SDS011;26418;50.070;8.436;2022-09-09T02:44:33;6.05;;;1.75;;
40729;SDS011;26418;50.070;8.436;2022-09-09T02:49:48;13.93;;;1.85;;
40729;SDS011;26418;50.070;8.436;2022-09-09T02:52:18;5.45;;;1.20;;
40729;SDS011;26418;50.070;8.436;2022-09-09T02:54:45;2.67;;;1.30;;
40729;SDS011;26418;50.070;8.436;2022-09-09T02:57:25;3.85;;;1.38;;
40729;SDS011;26418;50.070;8.436;2022-09-09T02:59:53;3.70;;;1.02;;
40729;SDS011;26418;50.070;8.436;2022-09-09T03:02:21;4.15;;;1.13;;
40729;SDS011;26418;50.070;8.436;2022-09-09T03:04:47;2.45;;;1.10;;
40729;SDS011;26418;50.070;8.436;2022-09-09T03:07:15;2.55;;;1.23;;
40729;SDS011;26418;50.070;8.436;2022-09-09T03:09:42;2.05;;;0.95;;
40729;SDS011;26418;50.070;8.436;2022-09-09T03:12:07;1.50;;;0.90;;
40729;SDS011;26418;50.070;8.436;2022-09-09T03:14:33;2.83;;;0.90;;
40729;SDS011;26418;50.070;8.436;2022-09-09T03:16:58;5.05;;;0.82;;
40729;SDS011;26418;50.070;8.436;2022-09-09T03:19:25;1.52;;;0.95;;
40729;SDS011;26418;50.070;8.436;2022-09-09T03:21:52;1.83;;;0.93;;
40729;SDS011;26418;50.070;8.436;2022-09-09T03:24:18;2.85;;;1.20;;
40729;SDS011;26418;50.070;8.436;2022-09-09T03:26:43;1.73;;;0.82;;
40729;SDS011;26418;50.070;8.436;2022-09-09T03:29:11;1.98;;;1.00;;
40729;SDS011;26418;50.070;8.436;2022-09-09T03:31:38;4.22;;;1.42;;
40729;SDS011;26418;50.070;8.436;2022-09-09T03:34:04;2.50;;;1.27;;
40729;SDS011;26418;50.070;8.436;2022-09-09T03:36:30;2.13;;;1.35;;
40729;SDS011;26418;50.070;8.436;2022-09-09T03:38:56;3.17;;;1.15;;
40729;SDS011;26418;50.070;8.436;2022-09-09T03:41:22;2.08;;;1.17;;
40729;SDS011;26418;50.070;8.436;2022-09-09T03:43:49;3.20;;;1.13;;
40729;SDS011;26418;50.070;8.436;2022-09-09T03:46:18;4.65;;;1.00;;
40729;SDS011;26418;50.070;8.436;2022-09-09T03:48:48;3.50;;;1.55;;
40729;SDS011;26418;50.070;8.436;2022-09-09T03:51:13;4.10;;;1.60;;
40729;SDS011;26418;50.070;8.436;2022-09-09T03:53:40;4.75;;;1.15;;
40729;SDS011;26418;50.070;8.436;2022-09-09T03:56:05;1.77;;;1.20;;
40729;SDS011;26418;50.070;8.436;2022-09-09T03:58:32;3.45;;;1.40;;
40729;SDS011;26418;50.070;8.436;2022-09-09T04:01:00;3.40;;;1.55;;
40729;SDS011;26418;50.070;8.436;2022-09-09T04:03:27;3.53;;;1.63;;
40729;SDS011;26418;50.070;8.436;2022-09-09T04:05:53;3.65;;;2.17;;
40729;SDS011;26418;50.070;8.436;2022-09-09T04:08:20;2.45;;;1.33;;
40729;SDS011;26418;50.070;8.436;2022-09-09T04:10:46;3.80;;;1.20;;
40729;SDS011;26418;50.070;8.436;2022-09-09T04:13:13;2.85;;;1.23;;
40729;SDS011;26418;50.070;8.436;2022-09-09T04:15:40;3.58;;;1.25;;
40729;SDS011;26418;50.070;8.436;2022-09-09T04:18:06;1.70;;;1.00;;
40729;SDS011;26418;50.070;8.436;2022-09-09T04:20:31;2.83;;;0.95;;
40729;SDS011;26418;50.070;8.436;2022-09-09T04:22:56;1.85;;;0.88;;
40729;SDS011;26418;50.070;8.436;2022-09-09T04:25:22;2.15;;;0.90;;
40729;SDS011;26418;50.070;8.436;2022-09-09T04:27:47;3.22;;;1.00;;
40729;SDS011;26418;50.070;8.436;2022-09-09T04:30:12;2.10;;;1.17;;
40729;SDS011;26418;50.070;8.436;2022-09-09T04:32:38;5.78;;;1.40;;
40729;SDS011;26418;50.070;8.436;2022-09-09T04:35:03;1.98;;;1.35;;
40729;SDS011;26418;50.070;8.436;2022-09-09T04:37:28;6.10;;;1.60;;
40729;SDS011;26418;50.070;8.436;2022-09-09T04:39:54;4.32;;;1.42;;
40729;SDS011;26418;50.070;8.436;2022-09-09T04:42:19;3.75;;;1.58;;
40729;SDS011;26418;50.070;8.436;2022-09-09T04:44:44;4.15;;;1.88;;
40729;SDS011;26418;50.070;8.436;2022-09-09T04:47:10;3.38;;;1.70;;
40729;SDS011;26418;50.070;8.436;2022-09-09T04:49:35;6.35;;;1.60;;
40729;SDS011;26418;50.070;8.436;2022-09-09T04:52:02;3.35;;;1.80;;
40729;SDS011;26418;50.070;8.436;2022-09-09T04:54:28;2.70;;;1.33;;
40729;SDS011;26418;50.070;8.436;2022-09-09T04:56:53;3.53;;;1.60;;
40729;SDS011;26418;50.070;8.436;2022-09-09T04:59:19;3.97;;;1.35;;
40729;SDS011;26418;50.070;8.436;2022-09-09T05:01:45;5.10;;;1.60;;
40729;SDS011;26418;50.070;8.436;2022-09-09T05:04:10;1.90;;;1.38;;
40729;SDS011;26418;50.070;8.436;2022-09-09T05:06:36;2.22;;;1.25;;
40729;SDS011;26418;50.070;8.436;2022-09-09T05:09:02;6.45;;;1.55;;
40729;SDS011;26418;50.070;8.436;2022-09-09T05:11:31;3.10;;;1.60;;
40729;SDS011;26418;50.070;8.436;2022-09-09T05:13:57;4.47;;;1.23;;
40729;SDS011;26418;50.070;8.436;2022-09-09T05:16:23;5.57;;;1.85;;
40729;SDS011;26418;50.070;8.436;2022-09-09T05:18:48;6.18;;;1.73;;
40729;SDS011;26418;50.070;8.436;2022-09-09T05:21:16;6.30;;;1.70;;
40729;SDS011;26418;50.070;8.436;2022-09-09T05:23:42;5.68;;;1.58;;
40729;SDS011;26418;50.070;8.436;2022-09-09T05:26:11;2.08;;;1.17;;
40729;SDS011;26418;50.070;8.436;2022-09-09T05:28:39;6.15;;;1.48;;
40729;SDS011;26418;50.070;8.436;2022-09-09T05:31:05;3.90;;;1.38;;
40729;SDS011;26418;50.070;8.436;2022-09-09T05:33:33;2.05;;;1.45;;
40729;SDS011;26418;50.070;8.436;2022-09-09T05:36:00;4.25;;;1.67;;
40729;SDS011;26418;50.070;8.436;2022-09-09T05:38:26;3.13;;;1.42;;
40729;SDS011;26418;50.070;8.436;2022-09-09T05:40:53;2.08;;;1.30;;
40729;SDS011;26418;50.070;8.436;2022-09-09T05:43:19;8.73;;;1.80;;
40729;SDS011;26418;50.070;8.436;2022-09-09T05:45:45;6.05;;;1.40;;
40729;SDS011;26418;50.070;8.436;2022-09-09T05:48:12;2.65;;;1.42;;
40729;SDS011;26418;50.070;8.436;2022-09-09T05:50:40;4.00;;;1.63;;
40729;SDS011;26418;50.070;8.436;2022-09-09T05:53:06;6.50;;;1.35;;
40729;SDS011;26418;50.070;8.436;2022-09-09T05:55:31;10.45;;;1.65;;
40729;SDS011;26418;50.070;8.436;2022-09-09T05:57:56;2.10;;;1.27;;
40729;SDS011;26418;50.070;8.436;2022-09-09T06:00:21;4.63;;;1.52;;
40729;SDS011;26418;50.070;8.436;2022-09-09T06:02:51;5.32;;;1.48;;
40729;SDS011;26418;50.070;8.436;2022-09-09T06:05:17;7.18;;;1.48;;
40729;SDS011;26418;50.070;8.436;2022-09-09T06:07:42;5.43;;;2.08;;
40729;SDS011;26418;50.070;8.436;2022-09-09T06:10:09;5.00;;;1.80;;
40729;SDS011;26418;50.070;8.436;2022-09-09T06:12:35;2.47;;;1.23;;
40729;SDS011;26418;50.070;8.436;2022-09-09T06:15:01;3.78;;;1.30;;
40729;SDS011;26418;50.070;8.436;2022-09-09T06:17:26;11.07;;;1.90;;
40729;SDS011;26418;50.070;8.436;2022-09-09T06:19:52;4.85;;;1.90;;
40729;SDS011;26418;50.070;8.436;2022-09-09T06:22:18;7.20;;;1.70;;
40729;SDS011;26418;50.070;8.436;2022-09-09T06:24:43;6.32;;;1.50;;
40729;SDS011;26418;50.070;8.436;2022-09-09T06:27:09;3.03;;;1.45;;
40729;SDS011;26418;50.070;8.436;2022-09-09T06:29:35;6.47;;;1.50;;
40729;SDS011;26418;50.070;8.436;2022-09-09T06:32:01;6.22;;;1.65;;
40729;SDS011;26418;50.070;8.436;2022-09-09T06:34:28;4.10;;;1.52;;
40729;SDS011;26418;50.070;8.436;2022-09-09T06:36:53;3.60;;;1.30;;
40729;SDS011;26418;50.070;8.436;2022-09-09T06:39:18;4.18;;;1.40;;
40729;SDS011;26418;50.070;8.436;2022-09-09T06:41:44;4.43;;;1.23;;
40729;SDS011;26418;50.070;8.436;2022-09-09T06:44:09;3.60;;;1.25;;
40729;SDS011;26418;50.070;8.436;2022-09-09T06:46:36;4.28;;;1.13;;
40729;SDS011;26418;50.070;8.436;2022-09-09T06:49:03;5.38;;;1.70;;
40729;SDS011;26418;50.070;8.436;2022-09-09T06:51:29;5.05;;;1.83;;
40729;SDS011;26418;50.070;8.436;2022-09-09T06:53:56;2.47;;;1.20;;
40729;SDS011;26418;50.070;8.436;2022-09-09T06:56:34;3.28;;;1.02;;
40729;SDS011;26418;50.070;8.436;2022-09-09T06:59:01;3.80;;;1.15;;
40729;SDS011;26418;50.070;8.436;2022-09-09T07:01:33;9.20;;;2.03;;
40729;SDS011;26418;50.070;8.436;2022-09-09T07:04:00;7.38;;;1.50;;
40729;SDS011;26418;50.070;8.436;2022-09-09T07:06:27;5.70;;;1.48;;
40729;SDS011;26418;50.070;8.436;2022-09-09T07:08:56;4.45;;;1.27;;
40729;SDS011;26418;50.070;8.436;2022-09-09T07:11:27;4.10;;;1.27;;
40729;SDS011;26418;50.070;8.436;2022-09-09T07:13:54;5.25;;;1.60;;
40729;SDS011;26418;50.070;8.436;2022-09-09T07:16:22;3.45;;;1.20;;
40729;SDS011;26418;50.070;8.436;2022-09-09T07:18:51;5.53;;;1.10;;
40729;SDS011;26418;50.070;8.436;2022-09-09T07:21:17;2.65;;;1.08;;
40729;SDS011;26418;50.070;8.436;2022-09-09T07:23:43;1.35;;;0.80;;
40729;SDS011;26418;50.070;8.436;2022-09-09T07:26:10;3.00;;;1.10;;
40729;SDS011;26418;50.070;8.436;2022-09-09T07:28:38;7.43;;;1.33;;
40729;SDS011;26418;50.070;8.436;2022-09-09T07:31:04;4.75;;;0.88;;
40729;SDS011;26418;50.070;8.436;2022-09-09T07:33:31;3.97;;;1.10;;
40729;SDS011;26418;50.070;8.436;2022-09-09T07:36:08;4.50;;;1.08;;
40729;SDS011;26418;50.070;8.436;2022-09-09T07:38:42;3.28;;;0.98;;
40729;SDS011;26418;50.070;8.436;2022-09-09T07:41:14;1.95;;;0.80;;
40729;SDS011;26418;50.070;8.436;2022-09-09T07:43:41;5.20;;;1.50;;
40729;SDS011;26418;50.070;8.436;2022-09-09T07:46:09;6.88;;;1.10;;
40729;SDS011;26418;50.070;8.436;2022-09-09T07:48:37;6.60;;;1.40;;
40729;SDS011;26418;50.070;8.436;2022-09-09T07:51:14;1.85;;;1.00;;
40729;SDS011;26418;50.070;8.436;2022-09-09T07:53:45;2.67;;;0.90;;
40729;SDS011;26418;50.070;8.436;2022-09-09T07:56:13;6.18;;;1.40;;
40729;SDS011;26418;50.070;8.436;2022-09-09T07:58:41;4.78;;;1.10;;
40729;SDS011;26418;50.070;8.436;2022-09-09T08:01:10;4.88;;;1.13;;
40729;SDS011;26418;50.070;8.436;2022-09-09T08:03:40;4.32;;;1.17;;
40729;SDS011;26418;50.070;8.436;2022-09-09T08:06:07;3.15;;;1.00;;
40729;SDS011;26418;50.070;8.436;2022-09-09T08:08:33;3.00;;;1.20;;
40729;SDS011;26418;50.070;8.436;2022-09-09T08:13:40;2.42;;;1.05;;
40729;SDS011;26418;50.070;8.436;2022-09-09T08:16:07;2.03;;;1.05;;
40729;SDS011;26418;50.070;8.436;2022-09-09T08:18:34;5.10;;;1.73;;
40729;SDS011;26418;50.070;8.436;2022-09-09T08:21:10;4.30;;;1.25;;
40729;SDS011;26418;50.070;8.436;2022-09-09T08:23:42;7.28;;;1.77;;
40729;SDS011;26418;50.070;8.436;2022-09-09T08:26:12;11.10;;;2.00;;
40729;SDS011;26418;50.070;8.436;2022-09-09T08:28:39;4.45;;;1.60;;
40729;SDS011;26418;50.070;8.436;2022-09-09T08:31:15;4.25;;;1.35;;
40729;SDS011;26418;50.070;8.436;2022-09-09T08:33:43;6.60;;;1.77;;
40729;SDS011;26418;50.070;8.436;2022-09-09T08:36:12;5.70;;;2.08;;
40729;SDS011;26418;50.070;8.436;2022-09-09T08:38:42;3.92;;;1.45;;
40729;SDS011;26418;50.070;8.436;2022-09-09T08:43:46;4.50;;;2.33;;
40729;SDS011;26418;50.070;8.436;2022-09-09T08:52:15;5.47;;;1.95;;
40729;SDS011;26418;50.070;8.436;2022-09-09T08:54:44;6.50;;;1.92;;
40729;SDS011;26418;50.070;8.436;2022-09-09T08:57:13;3.42;;;1.55;;
40729;SDS011;26418;50.070;8.436;2022-09-09T08:59:43;7.22;;;1.63;;
40729;SDS011;26418;50.070;8.436;2022-09-09T09:02:14;8.25;;;1.50;;
40729;SDS011;26418;50.070;8.436;2022-09-09T09:10:39;6.78;;;1.75;;
40729;SDS011;26418;50.070;8.436;2022-09-09T09:16:19;6.72;;;1.30;;
40729;SDS011;26418;50.070;8.436;2022-09-09T09:19:05;5.40;;;2.13;;
40729;SDS011;26418;50.070;8.436;2022-09-09T09:22:13;7.78;;;1.65;;
40729;SDS011;26418;50.070;8.436;2022-09-09T09:24:52;4.03;;;1.58;;
40729;SDS011;26418;50.070;8.436;2022-09-09T09:27:43;5.75;;;1.58;;
40729;SDS011;26418;50.070;8.436;2022-09-09T09:32:38;3.30;;;1.13;;
40729;SDS011;26418;50.070;8.436;2022-09-09T09:35:12;5.53;;;1.50;;
40729;SDS011;26418;50.070;8.436;2022-09-09T09:37:39;5.82;;;1.50;;
40729;SDS011;26418;50.070;8.436;2022-09-09T09:40:19;6.65;;;1.48;;
40729;SDS011;26418;50.070;8.436;2022-09-09T09:45:16;7.38;;;1.55;;
40729;SDS011;26418;50.070;8.436;2022-09-09T09:48:05;3.25;;;1.13;;
40729;SDS011;26418;50.070;8.436;2022-09-09T09:50:33;7.75;;;1.80;;
40729;SDS011;26418;50.070;8.436;2022-09-09T09:53:00;10.30;;;1.48;;
40729;SDS011;26418;50.070;8.436;2022-09-09T09:55:30;6.75;;;1.95;;
40729;SDS011;26418;50.070;8.436;2022-09-09T09:58:02;12.60;;;2.38;;
40729;SDS011;26418;50.070;8.436;2022-09-09T10:00:32;4.45;;;1.30;;
40729;SDS011;26418;50.070;8.436;2022-09-09T10:03:00;5.10;;;1.75;;
40729;SDS011;26418;50.070;8.436;2022-09-09T10:05:26;4.70;;;1.42;;
40729;SDS011;26418;50.070;8.436;2022-09-09T10:13:11;6.53;;;1.85;;
40729;SDS011;26418;50.070;8.436;2022-09-09T10:15:45;5.60;;;1.55;;
40729;SDS011;26418;50.070;8.436;2022-09-09T10:23:41;7.65;;;1.60;;
40729;SDS011;26418;50.070;8.436;2022-09-09T10:26:35;6.63;;;1.85;;
40729;SDS011;26418;50.070;8.436;2022-09-09T10:29:18;10.32;;;2.08;;
40729;SDS011;26418;50.070;8.436;2022-09-09T10:37:38;5.63;;;1.77;;
40729;SDS011;26418;50.070;8.436;2022-09-09T10:43:01;3.50;;;1.70;;
40729;SDS011;26418;50.070;8.436;2022-09-09T10:45:58;6.55;;;1.73;;
40729;SDS011;26418;50.070;8.436;2022-09-09T10:54:03;3.85;;;1.48;;
40729;SDS011;26418;50.070;8.436;2022-09-09T10:56:42;4.72;;;0.80;;
40729;SDS011;26418;50.070;8.436;2022-09-09T10:59:12;3.00;;;1.08;;
40729;SDS011;26418;50.070;8.436;2022-09-09T11:01:48;3.65;;;1.38;;
40729;SDS011;26418;50.070;8.436;2022-09-09T11:04:35;2.95;;;1.10;;
40729;SDS011;26418;50.070;8.436;2022-09-09T11:07:05;5.93;;;1.80;;
40729;SDS011;26418;50.070;8.436;2022-09-09T11:09:35;5.35;;;1.52;;
40729;SDS011;26418;50.070;8.436;2022-09-09T11:12:06;2.10;;;1.02;;
40729;SDS011;26418;50.070;8.436;2022-09-09T11:14:51;4.65;;;1.00;;
40729;SDS011;26418;50.070;8.436;2022-09-09T11:17:23;2.65;;;0.85;;
40729;SDS011;26418;50.070;8.436;2022-09-09T11:19:55;6.72;;;0.98;;
40729;SDS011;26418;50.070;8.436;2022-09-09T11:22:26;3.25;;;1.10;;
40729;SDS011;26418;50.070;8.436;2022-09-09T11:24:58;3.03;;;0.80;;
40729;SDS011;26418;50.070;8.436;2022-09-09T11:30:13;3.40;;;0.90;;
40729;SDS011;26418;50.070;8.436;2022-09-09T11:40:24;4.70;;;1.17;;
40729;SDS011;26418;50.070;8.436;2022-09-09T11:43:02;6.70;;;1.27;;
40729;SDS011;26418;50.070;8.436;2022-09-09T11:45:35;3.22;;;0.77;;
40729;SDS011;26418;50.070;8.436;2022-09-09T11:48:02;1.85;;;0.60;;
40729;SDS011;26418;50.070;8.436;2022-09-09T11:50:32;2.60;;;1.10;;
40729;SDS011;26418;50.070;8.436;2022-09-09T11:53:05;6.63;;;1.02;;
40729;SDS011;26418;50.070;8.436;2022-09-09T12:00:40;6.72;;;1.70;;
40729;SDS011;26418;50.070;8.436;2022-09-09T12:03:55;2.95;;;1.33;;
40729;SDS011;26418;50.070;8.436;2022-09-09T12:06:19;6.95;;;1.20;;
40729;SDS011;26418;50.070;8.436;2022-09-09T12:08:57;3.00;;;1.13;;
40729;SDS011;26418;50.070;8.436;2022-09-09T12:11:31;5.00;;;1.10;;
40729;SDS011;26418;50.070;8.436;2022-09-09T12:13:57;4.70;;;1.10;;
40729;SDS011;26418;50.070;8.436;2022-09-09T12:16:43;4.60;;;1.02;;
40729;SDS011;26418;50.070;8.436;2022-09-09T12:21:44;3.28;;;1.20;;
40729;SDS011;26418;50.070;8.436;2022-09-09T12:24:22;3.25;;;1.08;;
40729;SDS011;26418;50.070;8.436;2022-09-09T12:32:27;5.45;;;1.30;;
40729;SDS011;26418;50.070;8.436;2022-09-09T12:35:02;3.90;;;1.15;;
40729;SDS011;26418;50.070;8.436;2022-09-09T12:38:06;4.90;;;1.25;;
40729;SDS011;26418;50.070;8.436;2022-09-09T12:40:27;2.95;;;1.48;;
40729;SDS011;26418;50.070;8.436;2022-09-09T12:42:59;4.13;;;1.23;;
40729;SDS011;26418;50.070;8.436;2022-09-09T12:45:26;8.77;;;1.50;;
40729;SDS011;26418;50.070;8.436;2022-09-09T12:47:59;8.57;;;1.70;;
40729;SDS011;26418;50.070;8.436;2022-09-09T12:50:32;3.00;;;0.88;;
40729;SDS011;26418;50.070;8.436;2022-09-09T12:58:20;4.88;;;1.23;;
40729;SDS011;26418;50.070;8.436;2022-09-09T13:00:49;3.05;;;1.05;;
40729;SDS011;26418;50.070;8.436;2022-09-09T13:03:17;4.45;;;1.20;;
40729;SDS011;26418;50.070;8.436;2022-09-09T13:05:46;4.50;;;1.35;;
40729;SDS011;26418;50.070;8.436;2022-09-09T13:08:13;5.53;;;1.10;;
40729;SDS011;26418;50.070;8.436;2022-09-09T13:20:53;3.28;;;0.45;;
40729;SDS011;26418;50.070;8.436;2022-09-09T13:23:19;2.05;;;0.90;;
40729;SDS011;26418;50.070;8.436;2022-09-09T13:25:59;3.95;;;0.73;;
40729;SDS011;26418;50.070;8.436;2022-09-09T13:28:31;3.92;;;0.90;;
40729;SDS011;26418;50.070;8.436;2022-09-09T13:30:59;3.53;;;0.80;;
40729;SDS011;26418;50.070;8.436;2022-09-09T13:33:33;3.20;;;0.60;;
40729;SDS011;26418;50.070;8.436;2022-09-09T13:36:08;1.35;;;0.60;;
40729;SDS011;26418;50.070;8.436;2022-09-09T13:38:37;4.25;;;0.85;;
40729;SDS011;26418;50.070;8.436;2022-09-09T13:41:06;3.17;;;0.63;;
40729;SDS011;26418;50.070;8.436;2022-09-09T13:48:56;3.38;;;0.60;;
40729;SDS011;26418;50.070;8.436;2022-09-09T13:51:27;2.88;;;0.70;;
40729;SDS011;26418;50.070;8.436;2022-09-09T13:53:58;2.05;;;0.50;;
40729;SDS011;26418;50.070;8.436;2022-09-09T13:56:25;1.30;;;0.50;;
40729;SDS011;26418;50.070;8.436;2022-09-09T13:58:51;1.63;;;0.50;;
40729;SDS011;26418;50.070;8.436;2022-09-09T14:01:16;2.47;;;0.50;;
40729;SDS011;26418;50.070;8.436;2022-09-09T14:03:41;2.00;;;0.70;;
40729;SDS011;26418;50.070;8.436;2022-09-09T14:06:08;3.60;;;0.60;;
40729;SDS011;26418;50.070;8.436;2022-09-09T14:08:35;6.50;;;0.95;;
40729;SDS011;26418;50.070;8.436;2022-09-09T14:11:05;2.00;;;0.65;;
40729;SDS011;26418;50.070;8.436;2022-09-09T14:13:31;4.03;;;0.70;;
40729;SDS011;26418;50.070;8.436;2022-09-09T14:15:57;2.13;;;0.80;;
40729;SDS011;26418;50.070;8.436;2022-09-09T14:18:22;9.43;;;0.73;;
40729;SDS011;26418;50.070;8.436;2022-09-09T14:20:50;3.03;;;0.73;;
40729;SDS011;26418;50.070;8.436;2022-09-09T14:23:16;4.45;;;0.88;;
40729;SDS011;26418;50.070;8.436;2022-09-09T14:25:44;2.60;;;0.50;;
40729;SDS011;26418;50.070;8.436;2022-09-09T14:28:11;3.28;;;0.60;;
40729;SDS011;26418;50.070;8.436;2022-09-09T14:30:39;5.60;;;1.20;;
40729;SDS011;26418;50.070;8.436;2022-09-09T14:33:05;5.13;;;0.77;;
40729;SDS011;26418;50.070;8.436;2022-09-09T14:35:31;2.28;;;0.57;;
40729;SDS011;26418;50.070;8.436;2022-09-09T14:37:58;4.13;;;0.75;;
40729;SDS011;26418;50.070;8.436;2022-09-09T14:40:24;1.83;;;0.68;;
40729;SDS011;26418;50.070;8.436;2022-09-09T14:42:49;3.70;;;1.10;;
40729;SDS011;26418;50.070;8.436;2022-09-09T14:45:14;3.65;;;0.80;;
40729;SDS011;26418;50.070;8.436;2022-09-09T14:47:40;1.80;;;0.77;;
40729;SDS011;26418;50.070;8.436;2022-09-09T14:50:05;4.13;;;1.10;;
40729;SDS011;26418;50.070;8.436;2022-09-09T14:52:33;1.27;;;0.55;;
40729;SDS011;26418;50.070;8.436;2022-09-09T14:54:58;4.55;;;0.52;;
40729;SDS011;26418;50.070;8.436;2022-09-09T14:57:24;3.78;;;0.70;;
40729;SDS011;26418;50.070;8.436;2022-09-09T14:59:49;3.50;;;0.90;;
40729;SDS011;26418;50.070;8.436;2022-09-09T15:02:15;2.63;;;0.95;;
40729;SDS011;26418;50.070;8.436;2022-09-09T15:04:41;1.52;;;0.70;;
40729;SDS011;26418;50.070;8.436;2022-09-09T15:07:07;6.63;;;0.82;;
40729;SDS011;26418;50.070;8.436;2022-09-09T15:09:32;3.10;;;0.57;;
40729;SDS011;26418;50.070;8.436;2022-09-09T15:11:57;3.75;;;0.80;;
40729;SDS011;26418;50.070;8.436;2022-09-09T15:14:23;3.17;;;0.90;;
40729;SDS011;26418;50.070;8.436;2022-09-09T15:16:48;5.45;;;0.90;;
40729;SDS011;26418;50.070;8.436;2022-09-09T15:19:14;3.40;;;0.90;;
40729;SDS011;26418;50.070;8.436;2022-09-09T15:21:39;5.40;;;0.70;;
40729;SDS011;26418;50.070;8.436;2022-09-09T15:24:05;2.03;;;0.68;;
40729;SDS011;26418;50.070;8.436;2022-09-09T15:26:33;3.83;;;0.90;;
40729;SDS011;26418;50.070;8.436;2022-09-09T15:28:59;3.63;;;0.80;;
40729;SDS011;26418;50.070;8.436;2022-09-09T15:31:25;3.22;;;0.90;;
40729;SDS011;26418;50.070;8.436;2022-09-09T15:33:56;2.45;;;0.57;;
40729;SDS011;26418;50.070;8.436;2022-09-09T15:36:26;1.65;;;0.50;;
40729;SDS011;26418;50.070;8.436;2022-09-09T15:39:02;4.40;;;0.70;;
40729;SDS011;26418;50.070;8.436;2022-09-09T15:41:30;4.30;;;0.70;;
40729;SDS011;26418;50.070;8.436;2022-09-09T15:43:58;3.47;;;0.95;;
40729;SDS011;26418;50.070;8.436;2022-09-09T15:46:30;3.08;;;0.70;;
40729;SDS011;26418;50.070;8.436;2022-09-09T15:49:38;3.88;;;0.77;;
40729;SDS011;26418;50.070;8.436;2022-09-09T15:51:47;1.08;;;0.75;;
40729;SDS011;26418;50.070;8.436;2022-09-09T15:54:18;4.28;;;1.23;;
40729;SDS011;26418;50.070;8.436;2022-09-09T15:56:45;4.30;;;1.10;;
40729;SDS011;26418;50.070;8.436;2022-09-09T15:59:13;6.32;;;0.73;;
40729;SDS011;26418;50.070;8.436;2022-09-09T16:01:39;3.80;;;0.70;;
40729;SDS011;26418;50.070;8.436;2022-09-09T16:04:07;5.45;;;0.85;;
40729;SDS011;26418;50.070;8.436;2022-09-09T16:06:33;2.47;;;0.82;;
40729;SDS011;26418;50.070;8.436;2022-09-09T16:08:59;6.45;;;0.70;;
40729;SDS011;26418;50.070;8.436;2022-09-09T16:11:29;2.90;;;0.80;;
40729;SDS011;26418;50.070;8.436;2022-09-09T16:13:56;4.05;;;0.88;;
40729;SDS011;26418;50.070;8.436;2022-09-09T16:16:24;3.78;;;0.82;;
40729;SDS011;26418;50.070;8.436;2022-09-09T16:18:56;1.75;;;0.50;;
40729;SDS011;26418;50.070;8.436;2022-09-09T16:21:24;2.83;;;0.70;;
40729;SDS011;26418;50.070;8.436;2022-09-09T16:23:57;2.95;;;0.80;;
40729;SDS011;26418;50.070;8.436;2022-09-09T16:26:27;2.67;;;1.00;;
40729;SDS011;26418;50.070;8.436;2022-09-09T16:28:54;3.63;;;0.70;;
40729;SDS011;26418;50.070;8.436;2022-09-09T16:31:21;5.22;;;0.60;;
40729;SDS011;26418;50.070;8.436;2022-09-09T16:33:48;5.53;;;0.70;;
40729;SDS011;26418;50.070;8.436;2022-09-09T16:36:16;1.38;;;0.55;;
40729;SDS011;26418;50.070;8.436;2022-09-09T16:38:44;3.03;;;0.73;;
40729;SDS011;26418;50.070;8.436;2022-09-09T16:41:10;7.63;;;0.60;;
40729;SDS011;26418;50.070;8.436;2022-09-09T16:43:37;1.95;;;0.40;;
40729;SDS011;26418;50.070;8.436;2022-09-09T16:46:03;2.10;;;0.60;;
40729;SDS011;26418;50.070;8.436;2022-09-09T16:48:38;0.63;;;0.32;;
40729;SDS011;26418;50.070;8.436;2022-09-09T16:51:04;1.77;;;0.50;;
40729;SDS011;26418;50.070;8.436;2022-09-09T16:53:32;0.90;;;0.55;;
40729;SDS011;26418;50.070;8.436;2022-09-09T16:55:58;1.13;;;0.70;;
40729;SDS011;26418;50.070;8.436;2022-09-09T16:58:29;4.05;;;0.70;;
40729;SDS011;26418;50.070;8.436;2022-09-09T17:00:58;2.40;;;0.52;;
40729;SDS011;26418;50.070;8.436;2022-09-09T17:03:24;2.40;;;0.47;;
40729;SDS011;26418;50.070;8.436;2022-09-09T17:05:50;3.42;;;0.50;;
40729;SDS011;26418;50.070;8.436;2022-09-09T17:08:15;1.10;;;0.52;;
40729;SDS011;26418;50.070;8.436;2022-09-09T17:10:41;1.00;;;0.70;;